Time;durP1;ratioP1;P1;durP2;ratioP2;P2;SDS_P1;SDS_P2;PMS_P1;PMS_P2;Temp;Humidity;BMP_temperature;BMP_pressure;BME280_temperature;BME280_humidity;BME280_pressure;Samples;Min_cycle;Max_cycle;Signal;HPM_P1;HPM_P2
2021/10/18 00:00:11;;;;;;;22.60;13.05;;;11.60;73.80;;;;;;5056346;28;20181;-89
2021/10/18 00:02:40;;;;;;;22.17;13.75;;;11.50;74.40;;;;;;5056480;28;20192;-89
2021/10/18 00:05:12;;;;;;;21.05;13.60;;;11.50;74.60;;;;;;5068580;28;20209;-89
2021/10/18 00:07:38;;;;;;;17.95;12.07;;;11.60;74.50;;;;;;5057344;28;20261;-89
2021/10/18 00:10:06;;;;;;;21.75;11.90;;;11.60;74.60;;;;;;5063839;28;20245;-89
2021/10/18 00:12:32;;;;;;;20.80;15.40;;;11.60;74.60;;;;;;5069615;28;20190;-89
2021/10/18 00:14:58;;;;;;;25.53;14.03;;;11.60;74.60;;;;;;5062257;28;20284;-88
2021/10/18 00:17:23;;;;;;;21.33;13.30;;;11.60;74.50;;;;;;5074402;28;20176;-89
2021/10/18 00:19:49;;;;;;;22.87;13.43;;;11.50;74.40;;;;;;5050482;28;20566;-89
2021/10/18 00:22:16;;;;;;;16.60;12.10;;;11.50;74.40;;;;;;5056011;28;20595;-89
2021/10/18 00:24:42;;;;;;;19.60;13.05;;;11.40;74.40;;;;;;5052472;28;20459;-90
2021/10/18 00:27:07;;;;;;;22.38;13.35;;;11.40;74.80;;;;;;5067515;28;20181;-89
2021/10/18 00:29:33;;;;;;;23.30;13.57;;;11.40;74.80;;;;;;5072418;28;20194;-89
2021/10/18 00:31:59;;;;;;;20.10;13.90;;;11.60;74.80;;;;;;5064522;28;20652;-89
2021/10/18 00:34:25;;;;;;;18.07;12.27;;;11.60;74.60;;;;;;5057014;28;20190;-89
2021/10/18 00:36:52;;;;;;;18.20;12.47;;;11.70;74.40;;;;;;5065422;28;20177;-89
2021/10/18 00:39:17;;;;;;;14.10;10.70;;;11.80;74.10;;;;;;5059924;28;20197;-89
2021/10/18 00:41:43;;;;;;;18.40;12.23;;;11.90;73.90;;;;;;5077317;28;20192;-90
2021/10/18 00:44:09;;;;;;;21.50;11.83;;;11.90;73.50;;;;;;5070153;28;20209;-90
2021/10/18 00:46:34;;;;;;;17.63;11.07;;;12.00;73.30;;;;;;5064252;28;20209;-90
2021/10/18 00:49:00;;;;;;;17.90;13.00;;;12.00;73.10;;;;;;5055680;28;20213;-90
2021/10/18 00:51:28;;;;;;;18.50;13.07;;;12.00;72.90;;;;;;5062703;28;20420;-90
2021/10/18 00:53:56;;;;;;;16.13;11.80;;;11.90;72.80;;;;;;5084916;28;20436;-90
2021/10/18 00:56:22;;;;;;;12.20;10.20;;;11.80;72.80;;;;;;5065919;28;20554;-88
2021/10/18 00:58:49;;;;;;;18.52;11.88;;;11.80;73.00;;;;;;5059789;28;20177;-88
2021/10/18 01:01:16;;;;;;;18.25;11.35;;;11.70;73.30;;;;;;5061681;28;20185;-88
2021/10/18 01:03:42;;;;;;;22.20;13.20;;;11.70;73.30;;;;;;5067629;28;20197;-89
2021/10/18 01:06:08;;;;;;;17.52;11.93;;;11.70;73.40;;;;;;5066964;28;20181;-89
2021/10/18 01:08:34;;;;;;;17.67;13.25;;;11.60;73.40;;;;;;5036480;28;20205;-89
2021/10/18 01:11:00;;;;;;;20.27;12.88;;;11.60;73.50;;;;;;5049014;28;20174;-89
2021/10/18 01:13:26;;;;;;;18.38;11.13;;;11.50;73.80;;;;;;5042390;28;20197;-89
2021/10/18 01:15:53;;;;;;;21.33;12.67;;;11.50;73.90;;;;;;5051947;28;20235;-89
2021/10/18 01:18:19;;;;;;;20.50;13.65;;;11.70;73.80;;;;;;5052904;28;20193;-89
2021/10/18 01:20:45;;;;;;;16.10;12.00;;;11.90;73.40;;;;;;5055385;28;20165;-87
2021/10/18 01:23:11;;;;;;;19.37;12.20;;;11.90;73.10;;;;;;5045957;28;20201;-88
2021/10/18 01:25:38;;;;;;;26.85;11.60;;;11.80;72.70;;;;;;5042187;28;20415;-89
2021/10/18 01:28:04;;;;;;;19.88;11.60;;;11.80;72.70;;;;;;5037529;28;20562;-89
2021/10/18 01:30:30;;;;;;;16.33;11.45;;;11.80;72.80;;;;;;5047717;28;20205;-89
2021/10/18 01:32:57;;;;;;;20.20;13.33;;;11.70;73.00;;;;;;5056462;28;20185;-88
2021/10/18 01:35:23;;;;;;;18.90;12.55;;;11.80;73.10;;;;;;5046536;28;20428;-89
2021/10/18 01:37:50;;;;;;;21.23;13.68;;;11.80;73.20;;;;;;5046088;28;20212;-89
2021/10/18 01:40:18;;;;;;;18.48;12.65;;;11.70;73.30;;;;;;5035701;28;20189;-89
2021/10/18 01:42:44;;;;;;;17.40;12.75;;;11.70;73.40;;;;;;5069905;28;20207;-89
2021/10/18 01:45:13;;;;;;;20.45;14.18;;;11.60;73.50;;;;;;5041865;28;20293;-89
2021/10/18 01:47:41;;;;;;;17.77;12.60;;;11.60;73.70;;;;;;5050507;28;20201;-89
2021/10/18 01:50:10;;;;;;;19.27;13.90;;;11.60;73.70;;;;;;5030739;28;20675;-89
2021/10/18 01:52:36;;;;;;;18.45;11.77;;;11.50;73.80;;;;;;5045773;28;20197;-89
2021/10/18 01:55:02;;;;;;;22.90;15.15;;;11.40;73.70;;;;;;5046120;28;20204;-89
2021/10/18 01:57:30;;;;;;;20.23;13.65;;;11.40;73.80;;;;;;5022139;28;20186;-89
2021/10/18 01:59:57;;;;;;;22.70;13.35;;;11.50;73.90;;;;;;5033134;28;20604;-88
2021/10/18 02:02:23;;;;;;;23.40;12.75;;;11.40;73.90;;;;;;5021747;28;20252;-87
2021/10/18 02:04:49;;;;;;;26.90;13.45;;;11.40;74.00;;;;;;5051555;28;20213;-89
2021/10/18 02:07:15;;;;;;;32.93;15.47;;;11.40;74.20;;;;;;5060028;28;20778;-88
2021/10/18 02:09:41;;;;;;;21.47;13.07;;;11.40;74.30;;;;;;5045948;28;20293;-88
2021/10/18 02:12:07;;;;;;;22.37;13.73;;;11.30;74.40;;;;;;5044697;28;20427;-88
2021/10/18 02:14:32;;;;;;;23.57;13.17;;;11.20;74.50;;;;;;5044262;28;20636;-88
2021/10/18 02:16:58;;;;;;;28.40;14.70;;;11.20;74.60;;;;;;5021110;28;20416;-88
2021/10/18 02:19:24;;;;;;;26.90;14.20;;;11.10;74.80;;;;;;5028697;28;20420;-89
2021/10/18 02:21:50;;;;;;;21.67;14.23;;;11.00;75.00;;;;;;5031004;28;20424;-89
2021/10/18 02:24:17;;;;;;;25.17;14.93;;;11.10;75.20;;;;;;5052147;28;20261;-89
2021/10/18 02:26:43;;;;;;;27.10;15.15;;;11.20;75.10;;;;;;5022049;28;20178;-89
2021/10/18 02:29:09;;;;;;;23.33;14.33;;;11.20;75.00;;;;;;5028855;28;20210;-89
2021/10/18 02:31:36;;;;;;;28.90;17.10;;;11.10;75.10;;;;;;5028183;28;20425;-90
2021/10/18 02:34:03;;;;;;;24.00;16.08;;;11.10;75.10;;;;;;5020645;28;20432;-89
2021/10/18 02:36:30;;;;;;;20.83;14.27;;;11.00;75.20;;;;;;5027354;28;20236;-90
2021/10/18 02:38:56;;;;;;;26.30;15.68;;;11.10;75.30;;;;;;5029047;28;20264;-90
2021/10/18 02:41:23;;;;;;;25.45;14.57;;;11.10;75.20;;;;;;5018262;28;20627;-89
2021/10/18 02:43:49;;;;;;;25.88;15.25;;;11.10;75.20;;;;;;5035847;28;20205;-89
2021/10/18 02:46:15;;;;;;;27.15;15.30;;;11.00;75.20;;;;;;5027819;28;20273;-89
2021/10/18 02:48:41;;;;;;;24.77;14.70;;;10.90;75.50;;;;;;5031235;28;20201;-89
2021/10/18 02:51:06;;;;;;;33.28;16.20;;;10.80;75.60;;;;;;5028208;28;20182;-89
2021/10/18 02:53:32;;;;;;;26.73;15.57;;;10.70;75.80;;;;;;5031487;28;20232;-89
2021/10/18 02:55:58;;;;;;;30.37;16.57;;;10.60;76.00;;;;;;5029743;28;20559;-88
2021/10/18 02:58:24;;;;;;;25.10;16.90;;;10.50;77.00;;;;;;5035894;28;20923;-89
2021/10/18 03:00:49;;;;;;;34.30;16.67;;;10.70;76.50;;;;;;5028594;28;20281;-88
2021/10/18 03:03:15;;;;;;;21.80;14.80;;;10.80;76.30;;;;;;5035076;28;20251;-89
2021/10/18 03:05:41;;;;;;;32.63;15.90;;;10.90;76.20;;;;;;5039167;28;20197;-89
2021/10/18 03:08:07;;;;;;;28.63;17.70;;;10.80;75.80;;;;;;5047681;28;20840;-89
2021/10/18 03:10:32;;;;;;;25.60;15.77;;;10.80;75.70;;;;;;5044363;28;20421;-88
2021/10/18 03:12:58;;;;;;;29.80;15.97;;;10.80;75.60;;;;;;5037674;28;20182;-88
2021/10/18 03:15:24;;;;;;;27.73;15.90;;;10.80;75.60;;;;;;5061280;28;20223;-89
2021/10/18 03:17:51;;;;;;;26.03;16.60;;;10.70;75.70;;;;;;5050715;28;20182;-88
2021/10/18 03:20:16;;;;;;;27.17;15.85;;;10.60;75.80;;;;;;5058997;28;20182;-88
2021/10/18 03:22:42;;;;;;;29.00;17.30;;;10.50;76.10;;;;;;5066217;28;20189;-88
2021/10/18 03:25:09;;;;;;;29.33;15.97;;;10.50;76.40;;;;;;5066309;28;20511;-89
2021/10/18 03:27:35;;;;;;;27.92;15.23;;;10.50;76.50;;;;;;5050457;28;20235;-88
2021/10/18 03:30:01;;;;;;;29.38;16.80;;;10.40;76.50;;;;;;5051632;28;20216;-88
2021/10/18 03:32:26;;;;;;;28.58;16.13;;;10.50;76.70;;;;;;5050149;28;20170;-88
2021/10/18 03:34:52;;;;;;;25.23;16.67;;;10.60;76.50;;;;;;5065175;28;20205;-88
2021/10/18 03:37:18;;;;;;;29.67;15.97;;;10.70;76.30;;;;;;5065189;28;20176;-88
2021/10/18 03:39:44;;;;;;;24.43;16.10;;;10.60;76.00;;;;;;5064582;28;20189;-88
2021/10/18 03:42:09;;;;;;;30.43;14.60;;;10.60;75.90;;;;;;5048826;28;20182;-88
2021/10/18 03:44:35;;;;;;;26.40;15.30;;;10.60;75.70;;;;;;5051184;28;20197;-88
2021/10/18 03:47:01;;;;;;;35.17;18.05;;;10.60;75.80;;;;;;5050588;28;20439;-89
2021/10/18 03:49:27;;;;;;;28.63;16.33;;;10.60;75.80;;;;;;5044919;28;20197;-89
2021/10/18 03:51:53;;;;;;;25.20;15.47;;;10.40;75.90;;;;;;5044895;28;20221;-86
2021/10/18 03:54:19;;;;;;;30.10;18.20;;;10.50;76.30;;;;;;5044607;28;20440;-86
2021/10/18 03:56:47;;;;;;;29.60;16.87;;;10.50;76.30;;;;;;5036976;28;20189;-88
2021/10/18 03:59:13;;;;;;;34.03;16.35;;;10.50;76.30;;;;;;5067335;28;20182;-88
2021/10/18 04:01:38;;;;;;;27.37;16.60;;;10.50;76.20;;;;;;5044481;28;20182;-88
2021/10/18 04:04:04;;;;;;;25.67;16.27;;;10.40;76.20;;;;;;5059369;28;20210;-89
2021/10/18 04:06:30;;;;;;;29.73;15.90;;;10.50;76.30;;;;;;5054270;28;20599;-90
2021/10/18 04:08:56;;;;;;;28.33;16.30;;;10.40;76.30;;;;;;5048233;28;20549;-89
2021/10/18 04:11:22;;;;;;;33.13;17.08;;;10.30;76.40;;;;;;5052106;28;20679;-89
2021/10/18 04:13:48;;;;;;;28.10;16.60;;;10.20;76.60;;;;;;5059215;28;20198;-89
2021/10/18 04:16:13;;;;;;;30.00;18.80;;;10.20;76.80;;;;;;5060070;28;20247;-89
2021/10/18 04:18:39;;;;;;;30.80;17.47;;;10.20;76.90;;;;;;5043298;28;20707;-89
2021/10/18 04:21:06;;;;;;;31.03;17.50;;;10.20;77.00;;;;;;5037274;28;20204;-89
2021/10/18 04:23:32;;;;;;;26.95;16.58;;;10.30;76.90;;;;;;5053332;28;20201;-88
2021/10/18 04:25:58;;;;;;;30.48;16.40;;;10.20;76.90;;;;;;5048573;28;20174;-90
2021/10/18 04:28:24;;;;;;;32.80;17.55;;;10.20;77.00;;;;;;5051623;28;20750;-90
2021/10/18 04:30:50;;;;;;;26.30;16.80;;;10.20;77.10;;;;;;5049482;28;20185;-89
2021/10/18 04:33:16;;;;;;;30.97;16.80;;;10.30;77.10;;;;;;5038385;28;20292;-89
2021/10/18 04:35:41;;;;;;;26.00;16.50;;;10.30;77.70;;;;;;5048816;28;20445;-89
2021/10/18 04:38:08;;;;;;;27.60;16.70;;;10.40;76.90;;;;;;5059110;28;20182;-89
2021/10/18 04:40:34;;;;;;;26.95;15.75;;;10.30;76.80;;;;;;5081874;28;20173;-89
2021/10/18 04:43:00;;;;;;;24.90;16.02;;;10.20;76.70;;;;;;5070987;28;20196;-89
2021/10/18 04:45:26;;;;;;;29.45;17.58;;;10.20;76.80;;;;;;5052075;28;20675;-88
2021/10/18 04:47:51;;;;;;;29.83;16.20;;;10.30;76.80;;;;;;5041335;28;20174;-88
2021/10/18 04:50:19;;;;;;;32.20;15.30;;;10.20;76.80;;;;;;5044206;28;20474;-89
2021/10/18 04:52:45;;;;;;;26.92;17.25;;;10.20;76.90;;;;;;5041448;28;20182;-89
2021/10/18 04:55:11;;;;;;;33.20;16.38;;;10.20;76.80;;;;;;5044068;28;20193;-87
2021/10/18 04:57:49;;;;;;;27.37;16.60;;;10.20;76.80;;;;;;5059339;28;20665;-88
2021/10/18 05:00:15;;;;;;;29.63;16.50;;;10.30;76.90;;;;;;5050016;28;20850;-87
2021/10/18 05:02:40;;;;;;;28.13;17.00;;;10.20;76.70;;;;;;5042603;28;20182;-87
2021/10/18 05:05:06;;;;;;;27.17;15.23;;;10.20;77.00;;;;;;5058179;28;20233;-87
2021/10/18 05:07:32;;;;;;;31.98;18.85;;;10.20;77.00;;;;;;5060800;28;20220;-87
2021/10/18 05:09:58;;;;;;;35.30;17.90;;;10.20;76.90;;;;;;5046094;28;20197;-87
2021/10/18 05:12:23;;;;;;;27.60;15.83;;;10.20;76.70;;;;;;5045959;28;20172;-87
2021/10/18 05:14:49;;;;;;;24.57;15.50;;;10.20;76.60;;;;;;5028596;28;20208;-88
2021/10/18 05:17:15;;;;;;;23.47;15.67;;;10.20;76.50;;;;;;5041166;28;20626;-87
2021/10/18 05:19:40;;;;;;;26.13;16.67;;;10.20;76.40;;;;;;5063009;28;20186;-87
2021/10/18 05:22:06;;;;;;;24.47;14.90;;;10.30;76.40;;;;;;5086074;28;20177;-87
2021/10/18 05:24:32;;;;;;;30.47;17.10;;;10.30;76.20;;;;;;5065680;28;20201;-87
2021/10/18 05:26:58;;;;;;;21.93;14.60;;;10.20;75.90;;;;;;5058501;28;20181;-87
2021/10/18 05:29:24;;;;;;;30.07;14.57;;;10.20;75.90;;;;;;5057371;28;20452;-87
2021/10/18 05:31:50;;;;;;;29.40;16.75;;;10.10;76.00;;;;;;5066661;28;20721;-87
2021/10/18 05:34:15;;;;;;;27.10;15.10;;;10.20;76.10;;;;;;5064282;28;20292;-86
2021/10/18 05:36:41;;;;;;;27.50;17.70;;;10.10;76.40;;;;;;5043983;28;20174;-86
2021/10/18 05:39:07;;;;;;;27.83;15.90;;;10.00;76.40;;;;;;5055263;28;20454;-87
2021/10/18 05:41:32;;;;;;;27.07;15.47;;;10.00;76.70;;;;;;5049050;28;20193;-86
2021/10/18 05:43:59;;;;;;;30.57;16.97;;;10.00;76.80;;;;;;5044993;28;20653;-87
2021/10/18 05:46:25;;;;;;;29.77;16.23;;;9.90;77.10;;;;;;5047274;28;20182;-85
2021/10/18 05:48:50;;;;;;;32.03;16.55;;;9.90;77.40;;;;;;5067121;28;20201;-85
2021/10/18 05:51:17;;;;;;;35.97;16.83;;;9.90;77.50;;;;;;5054427;28;20178;-86
2021/10/18 05:53:43;;;;;;;31.65;16.17;;;9.80;77.50;;;;;;5042722;28;20196;-86
2021/10/18 05:56:09;;;;;;;30.60;16.90;;;9.90;77.70;;;;;;5055703;28;20280;-85
2021/10/18 05:58:35;;;;;;;27.67;16.70;;;9.90;77.50;;;;;;5058421;28;20428;-85
2021/10/18 06:01:01;;;;;;;35.03;17.97;;;10.00;77.50;;;;;;5058067;28;20196;-86
2021/10/18 06:03:26;;;;;;;29.33;16.63;;;9.90;77.40;;;;;;5057053;28;20250;-85
2021/10/18 06:05:53;;;;;;;32.17;17.40;;;10.00;77.40;;;;;;5056646;28;20192;-84
2021/10/18 06:08:19;;;;;;;35.90;18.02;;;10.00;77.20;;;;;;5057190;28;20207;-84
2021/10/18 06:10:45;;;;;;;43.70;18.10;;;10.10;76.90;;;;;;5057717;28;20181;-84
2021/10/18 06:13:11;;;;;;;27.55;15.95;;;10.20;76.70;;;;;;5046712;28;20829;-85
2021/10/18 06:15:38;;;;;;;28.38;18.38;;;10.10;76.80;;;;;;5040636;28;20232;-85
2021/10/18 06:18:18;;;;;;;35.85;17.52;;;10.10;76.70;;;;;;5039901;28;20182;-85
2021/10/18 06:20:46;;;;;;;35.03;17.83;;;10.00;76.60;;;;;;5053448;28;20192;-85
2021/10/18 06:23:13;;;;;;;32.58;16.05;;;10.00;76.70;;;;;;5058947;28;20225;-85
2021/10/18 06:25:39;;;;;;;27.63;14.93;;;10.20;76.60;;;;;;5067486;28;20181;-81
2021/10/18 06:28:05;;;;;;;27.27;17.38;;;10.30;76.40;;;;;;5059187;28;20272;-79
2021/10/18 06:30:31;;;;;;;37.10;17.47;;;10.40;75.80;;;;;;5040526;28;20276;-81
2021/10/18 06:32:57;;;;;;;30.55;17.45;;;10.30;75.90;;;;;;5054240;28;20424;-81
2021/10/18 06:35:23;;;;;;;27.40;16.40;;;10.30;75.80;;;;;;5039514;28;20182;-81
2021/10/18 06:37:49;;;;;;;30.73;17.90;;;10.30;75.70;;;;;;5046688;28;20174;-81
2021/10/18 06:40:16;;;;;;;33.15;17.33;;;10.30;75.70;;;;;;5045311;28;20198;-81
2021/10/18 06:42:42;;;;;;;26.55;16.50;;;10.40;75.60;;;;;;5052651;28;20182;-81
2021/10/18 06:45:09;;;;;;;29.88;17.60;;;10.40;75.70;;;;;;5042260;28;20201;-81
2021/10/18 06:47:35;;;;;;;31.92;14.82;;;10.40;75.60;;;;;;5053078;28;20181;-81
2021/10/18 06:50:01;;;;;;;26.90;16.43;;;10.40;75.60;;;;;;5042209;28;20555;-81
2021/10/18 06:52:33;;;;;;;31.20;18.42;;;10.40;75.50;;;;;;5055457;28;20419;-82
2021/10/18 06:55:00;;;;;;;33.80;15.38;;;10.50;75.30;;;;;;5055972;28;20235;-81
2021/10/18 06:57:26;;;;;;;30.05;16.75;;;10.60;75.50;;;;;;5061347;28;20199;-81
2021/10/18 06:59:52;;;;;;;31.33;16.92;;;10.60;75.20;;;;;;5055356;28;20249;-81
2021/10/18 07:02:18;;;;;;;33.00;18.13;;;10.60;75.10;;;;;;5055989;28;20209;-81
2021/10/18 07:04:43;;;;;;;31.90;17.33;;;10.50;75.40;;;;;;5059812;28;20220;-81
2021/10/18 07:07:09;;;;;;;36.70;18.13;;;10.40;75.40;;;;;;5059845;28;20189;-81
2021/10/18 07:09:35;;;;;;;29.03;17.13;;;10.60;75.60;;;;;;5025112;28;20229;-81
2021/10/18 07:12:01;;;;;;;34.70;18.17;;;10.60;75.30;;;;;;5025716;28;20424;-81
2021/10/18 07:14:26;;;;;;;28.33;15.60;;;10.70;75.20;;;;;;5042409;28;20197;-80
2021/10/18 07:16:52;;;;;;;29.80;15.97;;;10.60;75.10;;;;;;5040829;28;20170;-81
2021/10/18 07:19:18;;;;;;;31.50;17.67;;;10.40;75.30;;;;;;5025111;28;20193;-81
2021/10/18 07:21:46;;;;;;;29.58;17.15;;;10.50;75.70;;;;;;5040980;28;20182;-80
2021/10/18 07:24:13;;;;;;;24.17;16.95;;;10.60;75.70;;;;;;5038682;28;20206;-81
2021/10/18 07:26:38;;;;;;;30.50;15.77;;;10.60;75.60;;;;;;5023834;28;20189;-81
2021/10/18 07:29:04;;;;;;;36.53;17.17;;;10.70;75.50;;;;;;5031124;28;20198;-81
2021/10/18 07:31:30;;;;;;;30.90;16.67;;;10.80;75.20;;;;;;5039344;28;20231;-81
2021/10/18 07:34:01;;;;;;;34.13;17.50;;;10.80;75.10;;;;;;5024877;28;20789;-81
2021/10/18 07:36:29;;;;;;;35.28;17.15;;;10.60;75.00;;;;;;5030678;28;20551;-81
2021/10/18 07:39:03;;;;;;;30.80;16.38;;;10.50;75.40;;;;;;5033994;28;20197;-81
2021/10/18 07:41:29;;;;;;;32.40;17.45;;;10.50;75.70;;;;;;5059675;28;20181;-81
2021/10/18 07:43:54;;;;;;;39.60;16.90;;;10.50;75.80;;;;;;5059290;28;20216;-80
2021/10/18 07:46:20;;;;;;;37.77;18.73;;;10.50;76.30;;;;;;5042339;28;20437;-81
2021/10/18 07:48:46;;;;;;;28.03;14.83;;;10.50;76.20;;;;;;5024646;28;20217;-81
2021/10/18 07:51:12;;;;;;;26.50;14.60;;;10.60;76.30;;;;;;5059725;28;20640;-81
2021/10/18 07:53:37;;;;;;;28.33;15.53;;;10.70;76.40;;;;;;5037666;28;20612;-81
2021/10/18 07:56:03;;;;;;;29.57;17.00;;;10.80;76.30;;;;;;5048635;28;20177;-81
2021/10/18 07:58:29;;;;;;;30.77;16.63;;;10.80;75.70;;;;;;5048389;28;20600;-81
2021/10/18 08:00:55;;;;;;;32.30;16.07;;;10.70;75.40;;;;;;5057232;28;20488;-81
2021/10/18 08:03:21;;;;;;;28.50;16.20;;;10.90;75.50;;;;;;5056519;28;20259;-81
2021/10/18 08:05:46;;;;;;;25.63;15.48;;;10.90;75.40;;;;;;5053769;28;20201;-81
2021/10/18 08:08:14;;;;;;;27.80;15.30;;;11.00;75.50;;;;;;5063737;28;20181;-81
2021/10/18 08:10:40;;;;;;;29.67;15.90;;;11.00;75.40;;;;;;5061620;28;20424;-81
2021/10/18 08:13:05;;;;;;;32.65;16.73;;;11.00;74.90;;;;;;5039495;28;20208;-81
2021/10/18 08:15:31;;;;;;;26.20;14.83;;;11.10;74.90;;;;;;5039405;28;20215;-82
2021/10/18 08:17:58;;;;;;;32.73;16.37;;;11.20;74.60;;;;;;5038358;28;20174;-81
2021/10/18 08:20:24;;;;;;;26.52;15.35;;;11.50;74.40;;;;;;5053641;28;20495;-81
2021/10/18 08:22:50;;;;;;;30.13;15.40;;;11.40;73.30;;;;;;5058034;28;20231;-81
2021/10/18 08:25:16;;;;;;;33.05;15.48;;;11.40;73.40;;;;;;5047117;28;20432;-81
2021/10/18 08:27:42;;;;;;;25.90;15.30;;;11.30;74.00;;;;;;5053553;28;20686;-81
2021/10/18 08:30:09;;;;;;;23.67;13.20;;;11.40;74.40;;;;;;5030828;28;20218;-81
2021/10/18 08:32:35;;;;;;;28.15;16.23;;;11.60;75.00;;;;;;5038177;28;20182;-81
2021/10/18 08:35:01;;;;;;;39.13;17.42;;;11.70;73.50;;;;;;5038555;28;20260;-81
2021/10/18 08:38:17;;;;;;;25.10;14.73;;;11.70;73.30;;;;;;5051165;28;20169;-81
2021/10/18 08:40:13;;;;;;;30.35;17.35;;;11.70;73.40;;;;;;5050485;28;20201;-81
2021/10/18 08:43:02;;;;;;;31.20;15.68;;;11.90;73.20;;;;;;5057751;28;20189;-81
2021/10/18 08:45:29;;;;;;;28.30;15.88;;;12.00;72.80;;;;;;5057145;28;20189;-81
2021/10/18 08:47:55;;;;;;;27.30;15.68;;;11.90;72.80;;;;;;5057104;28;20188;-81
2021/10/18 08:50:22;;;;;;;27.02;15.40;;;11.90;73.50;;;;;;5054303;28;20297;-81
2021/10/18 08:52:51;;;;;;;24.17;16.25;;;11.90;73.20;;;;;;5045126;28;20194;-81
2021/10/18 08:55:18;;;;;;;27.83;15.73;;;11.90;73.50;;;;;;5049860;28;20177;-81
2021/10/18 08:57:44;;;;;;;28.80;15.48;;;12.10;73.50;;;;;;5056707;28;20178;-81
2021/10/18 09:00:43;;;;;;;30.73;15.07;;;12.10;73.40;;;;;;5053605;28;20645;-81
2021/10/18 09:03:23;;;;;;;29.05;17.13;;;12.20;73.30;;;;;;5038998;28;20185;-81
2021/10/18 09:05:50;;;;;;;24.73;14.35;;;12.10;72.80;;;;;;5057360;28;20243;-81
2021/10/18 09:08:37;;;;;;;27.88;15.00;;;12.30;72.90;;;;;;5036863;28;20560;-81
2021/10/18 09:11:08;;;;;;;23.90;14.88;;;12.50;72.50;;;;;;5020275;28;20542;-81
2021/10/18 09:13:35;;;;;;;32.03;16.05;;;12.50;72.00;;;;;;5024422;28;20255;-81
2021/10/18 09:16:01;;;;;;;23.98;13.70;;;12.80;71.70;;;;;;5044961;28;20182;-81
2021/10/18 09:18:27;;;;;;;26.02;14.10;;;12.50;71.10;;;;;;5019873;28;20181;-81
2021/10/18 09:20:53;;;;;;;23.17;13.60;;;12.30;71.70;;;;;;5033273;28;20553;-81
2021/10/18 09:23:23;;;;;;;22.00;13.30;;;12.40;72.00;;;;;;5020792;28;20208;-81
2021/10/18 09:25:50;;;;;;;30.48;13.88;;;12.60;71.70;;;;;;5027735;28;20181;-81
2021/10/18 09:28:21;;;;;;;30.48;15.65;;;12.60;71.10;;;;;;5046442;28;20197;-82
2021/10/18 09:30:48;;;;;;;24.00;14.00;;;12.60;70.90;;;;;;5018154;28;20366;-81
2021/10/18 09:36:02;;;;;;;29.65;14.68;;;13.00;70.30;;;;;;5043065;28;20197;-81
2021/10/18 09:38:28;;;;;;;22.65;12.43;;;13.00;69.90;;;;;;5038141;28;20209;-81
2021/10/18 09:40:58;;;;;;;21.70;12.43;;;13.10;69.30;;;;;;5041203;28;20178;-81
2021/10/18 09:46:01;;;;;;;22.25;13.13;;;13.20;69.30;;;;;;5057688;28;20180;-82
2021/10/18 10:53:27;;;;;;;13.80;7.95;;;15.20;66.00;;;;;;5030062;28;20218;-81
2021/10/18 10:55:57;;;;;;;14.07;8.43;;;15.20;65.30;;;;;;5050740;28;20166;-81
2021/10/18 10:58:53;;;;;;;11.20;7.75;;;15.70;64.80;;;;;;5039312;28;20632;-81
2021/10/18 11:01:48;;;;;;;12.00;7.10;;;15.80;63.70;;;;;;5055608;28;20180;-81
2021/10/18 11:04:29;;;;;;;9.23;7.07;;;15.70;63.10;;;;;;5025359;28;20221;-81
2021/10/18 11:06:57;;;;;;;13.95;8.02;;;15.80;62.90;;;;;;5048465;28;20177;-81
2021/10/18 11:09:45;;;;;;;15.43;7.15;;;15.70;63.10;;;;;;5051853;28;20201;-82
2021/10/18 11:12:16;;;;;;;10.35;6.45;;;15.90;62.80;;;;;;5057645;28;20192;-81
2021/10/18 11:14:50;;;;;;;6.75;5.68;;;16.10;62.00;;;;;;5055881;28;20193;-81
2021/10/18 11:17:17;;;;;;;10.48;6.93;;;15.80;61.60;;;;;;5053605;28;20197;-81
2021/10/18 11:19:54;;;;;;;9.63;6.50;;;16.00;61.60;;;;;;5049398;28;20188;-81
2021/10/18 11:22:32;;;;;;;10.75;7.53;;;16.00;61.60;;;;;;5048520;28;20548;-81
2021/10/18 11:24:58;;;;;;;15.13;7.53;;;16.20;61.80;;;;;;5044555;28;20216;-81
2021/10/18 11:27:33;;;;;;;14.25;6.90;;;16.10;61.20;;;;;;5042731;28;20181;-81
2021/10/18 11:30:04;;;;;;;15.38;8.07;;;16.40;61.30;;;;;;5040120;28;20230;-81
2021/10/18 11:32:31;;;;;;;13.30;7.18;;;16.00;61.60;;;;;;5038425;28;20185;-81
2021/10/18 11:35:17;;;;;;;11.82;6.85;;;16.00;62.40;;;;;;5040442;28;20279;-80
2021/10/18 11:38:09;;;;;;;8.80;6.38;;;16.00;62.30;;;;;;5040824;28;20260;-81
2021/10/18 11:40:41;;;;;;;11.80;7.85;;;15.90;63.00;;;;;;5048295;28;20548;-81
2021/10/18 11:43:16;;;;;;;9.70;7.40;;;15.90;63.20;;;;;;5022671;28;20198;-81
2021/10/18 11:45:45;;;;;;;7.38;5.65;;;15.90;63.30;;;;;;5055688;28;20522;-81
2021/10/18 11:48:19;;;;;;;10.43;7.15;;;16.20;63.10;;;;;;5041793;28;20185;-81
2021/10/18 11:50:53;;;;;;;14.35;6.55;;;16.10;63.20;;;;;;5041563;28;20551;-81
2021/10/18 11:53:24;;;;;;;19.63;6.95;;;16.10;63.00;;;;;;5046908;28;20623;-81
2021/10/18 11:55:55;;;;;;;17.38;7.07;;;16.00;63.20;;;;;;5055711;28;20170;-81
2021/10/18 11:58:32;;;;;;;8.02;6.55;;;16.10;62.70;;;;;;5047117;28;20178;-81
2021/10/18 12:01:25;;;;;;;9.90;6.75;;;15.90;63.30;;;;;;5022386;28;20200;-81
2021/10/18 12:03:58;;;;;;;11.05;5.78;;;15.90;63.50;;;;;;5055837;28;20695;-81
2021/10/18 12:06:24;;;;;;;9.05;6.00;;;15.90;63.60;;;;;;5024308;28;20174;-81
2021/10/18 12:08:55;;;;;;;8.23;6.47;;;16.20;63.50;;;;;;5022399;28;20317;-82
2021/10/18 12:11:25;;;;;;;6.72;6.00;;;16.10;63.60;;;;;;5024643;28;20178;-81
2021/10/18 12:13:51;;;;;;;7.25;5.93;;;16.10;63.60;;;;;;5052283;28;20573;-81
2021/10/18 12:16:25;;;;;;;8.20;6.63;;;16.20;63.80;;;;;;5026973;28;20181;-81
2021/10/18 12:18:53;;;;;;;11.57;6.78;;;16.10;63.80;;;;;;5036973;28;20178;-82
2021/10/18 12:21:35;;;;;;;8.23;6.22;;;16.40;63.60;;;;;;5030695;28;20280;-81
2021/10/18 12:24:07;;;;;;;10.18;5.78;;;16.70;62.90;;;;;;5032354;28;20206;-81
2021/10/18 12:26:41;;;;;;;11.15;7.55;;;16.70;62.30;;;;;;5043107;28;20174;-81
2021/10/18 12:29:15;;;;;;;14.23;5.20;;;16.80;62.30;;;;;;5052150;28;20280;-81
2021/10/18 12:31:42;;;;;;;7.47;4.97;;;16.70;62.40;;;;;;5044222;28;20185;-81
2021/10/18 12:34:14;;;;;;;7.72;5.15;;;17.00;62.40;;;;;;5047655;28;20189;-81
2021/10/18 12:37:19;;;;;;;8.48;5.35;;;17.00;61.90;;;;;;5044202;28;20185;-81
2021/10/18 12:39:54;;;;;;;9.23;6.03;;;17.00;61.80;;;;;;5040658;28;20198;-82
2021/10/18 12:42:28;;;;;;;6.82;5.45;;;17.30;61.30;;;;;;5037663;28;20195;-81
2021/10/18 12:45:15;;;;;;;7.13;5.18;;;17.00;61.50;;;;;;5025399;28;20204;-81
2021/10/18 12:47:54;;;;;;;6.82;5.43;;;16.80;62.40;;;;;;5036892;28;20208;-81
2021/10/18 12:50:23;;;;;;;11.15;6.40;;;16.90;62.60;;;;;;5041144;28;20204;-81
2021/10/18 12:53:03;;;;;;;8.45;5.07;;;16.70;62.80;;;;;;5052563;28;20177;-81
2021/10/18 12:55:36;;;;;;;9.77;6.75;;;16.80;63.20;;;;;;5021699;28;20177;-82
2021/10/18 12:58:16;;;;;;;10.40;6.07;;;16.80;63.10;;;;;;5019643;28;20174;-82
2021/10/18 13:00:41;;;;;;;6.95;5.45;;;16.80;63.60;;;;;;5034180;28;20550;-82
2021/10/18 13:03:07;;;;;;;9.80;5.33;;;17.10;63.20;;;;;;5043481;28;20255;-82
2021/10/18 13:05:41;;;;;;;11.03;5.53;;;17.20;62.50;;;;;;5052570;28;20185;-81
2021/10/18 13:08:07;;;;;;;11.13;5.93;;;17.00;62.20;;;;;;5051476;28;20161;-81
2021/10/18 13:10:37;;;;;;;5.83;4.93;;;16.90;63.10;;;;;;5047168;28;20212;-81
2021/10/18 13:13:05;;;;;;;10.43;6.05;;;17.10;63.00;;;;;;5043625;28;20178;-81
2021/10/18 13:15:31;;;;;;;8.48;4.95;;;17.00;62.60;;;;;;5048399;28;20182;-81
2021/10/18 13:17:57;;;;;;;8.73;6.30;;;17.30;62.70;;;;;;5043765;28;20242;-81
2021/10/18 13:20:25;;;;;;;6.97;5.25;;;17.40;62.50;;;;;;5048105;28;20437;-81
2021/10/18 13:22:52;;;;;;;6.57;5.43;;;17.60;61.90;;;;;;5075391;28;20192;-81
2021/10/18 13:25:20;;;;;;;9.65;6.45;;;17.80;61.60;;;;;;5058243;28;20205;-82
2021/10/18 13:27:46;;;;;;;7.60;6.05;;;17.60;61.10;;;;;;5045181;28;20217;-81
2021/10/18 13:30:12;;;;;;;9.50;6.73;;;17.40;61.80;;;;;;5055907;28;20200;-81
2021/10/18 13:32:40;;;;;;;7.30;5.85;;;17.50;62.40;;;;;;5042420;28;20494;-81
2021/10/18 13:35:07;;;;;;;6.28;5.63;;;17.60;62.00;;;;;;5042369;28;20198;-81
2021/10/18 13:37:33;;;;;;;7.78;5.53;;;17.70;62.10;;;;;;5041026;28;20201;-81
2021/10/18 13:39:59;;;;;;;9.30;5.83;;;17.60;62.20;;;;;;5063609;28;20195;-81
2021/10/18 13:42:25;;;;;;;7.40;5.30;;;17.50;62.60;;;;;;5059878;28;20474;-81
2021/10/18 13:44:51;;;;;;;11.30;7.13;;;17.40;63.00;;;;;;5059225;28;20264;-81